Terminal Aerodrome Forecast
Issued by NWS Wilmington, OH

Current Version | Previous Version | Graphics & Text | Print | Product List | Glossary On
Versions: 1 2 3 4 5 6 7 8 9 10 11 12 13 14 15 16 17 18 19 20 21 22 23 24 25 26 27 28 29 30
476
FTUS41 KILN 141945 AAB
TAFILN
TAF AMD
KILN 141945Z 1420/1518 VRB03KT 3SM -RA OVC004
     FM142200 32004KT 4SM BR OVC004
     FM150400 35005KT P6SM OVC012
     FM151400 09003KT P6SM BKN060=

USA.gov is the U.S. government's official web portal to all federal, state and local government web resources and services.